Time;durP1;ratioP1;P1;durP2;ratioP2;P2;SDS_P1;SDS_P2;PMS_P1;PMS_P2;Temp;Humidity;BMP_temperature;BMP_pressure;BME280_temperature;BME280_humidity;BME280_pressure;Samples;Min_cycle;Max_cycle;Signal;HPM_P1;HPM_P2
2022/01/24 00:00:41;;;;;;;6.35;2.30;;;5.60;99.90;;;;;;5011736;28;20053;-74
2022/01/24 00:03:12;;;;;;;5.87;2.70;;;5.60;99.90;;;;;;4996212;28;20145;-74
2022/01/24 00:05:42;;;;;;;5.90;2.33;;;5.60;99.90;;;;;;5033520;28;20046;-74
2022/01/24 00:08:12;;;;;;;5.50;2.80;;;5.60;99.90;;;;;;5014678;28;20041;-74
2022/01/24 00:10:44;;;;;;;6.18;2.30;;;5.60;99.90;;;;;;5031439;28;20044;-75
2022/01/24 00:16:16;;;;;;;7.43;2.60;;;5.50;99.90;;;;;;5012741;28;20041;-75
2022/01/24 00:27:08;;;;;;;4.70;2.38;;;5.50;99.90;;;;;;5032280;28;20037;-74
2022/01/24 00:29:38;;;;;;;4.10;2.10;;;5.60;99.90;;;;;;5016315;28;20168;-74
2022/01/24 00:32:09;;;;;;;5.10;2.17;;;5.50;99.90;;;;;;5003625;28;20050;-74
2022/01/24 00:35:02;;;;;;;5.78;2.88;;;5.60;99.90;;;;;;5028057;28;20034;-74
2022/01/24 00:37:34;;;;;;;6.72;2.30;;;5.60;99.90;;;;;;5032901;28;20080;-74
2022/01/24 00:40:28;;;;;;;6.15;2.38;;;5.60;99.90;;;;;;5009018;28;20125;-74
2022/01/24 00:42:59;;;;;;;4.90;2.23;;;5.60;99.90;;;;;;4997268;28;20049;-74
2022/01/24 00:45:34;;;;;;;6.00;2.22;;;5.60;99.90;;;;;;5013900;28;20514;-74
2022/01/24 00:48:26;;;;;;;6.22;2.40;;;5.60;99.90;;;;;;4998622;28;20053;-74
2022/01/24 00:54:03;;;;;;;7.15;1.77;;;5.60;99.90;;;;;;4974694;28;20049;-74
2022/01/24 00:56:32;;;;;;;6.17;1.83;;;5.60;99.90;;;;;;5009716;28;20057;-74
2022/01/24 00:59:03;;;;;;;7.30;2.10;;;5.70;99.90;;;;;;5029190;28;20037;-74
2022/01/24 01:01:33;;;;;;;4.45;1.95;;;5.70;99.90;;;;;;5015985;28;20487;-74
2022/01/24 01:04:05;;;;;;;5.05;1.58;;;5.70;99.90;;;;;;5026413;28;20061;-74
2022/01/24 01:06:34;;;;;;;4.47;1.83;;;5.70;99.90;;;;;;5031652;28;20037;-74
2022/01/24 01:20:25;;;;;;;5.07;1.80;;;5.70;99.90;;;;;;5015220;28;20486;-74
2022/01/24 01:22:55;;;;;;;3.80;1.40;;;5.60;99.90;;;;;;4995480;28;20037;-74
2022/01/24 01:25:23;;;;;;;4.40;1.50;;;5.40;99.90;;;;;;5015139;28;20068;-74
2022/01/24 01:27:53;;;;;;;4.78;1.83;;;5.40;99.90;;;;;;5013450;28;20042;-74
2022/01/24 01:30:34;;;;;;;5.57;2.45;;;5.30;99.90;;;;;;5014281;28;20124;-74
2022/01/24 01:33:13;;;;;;;5.82;2.55;;;5.20;99.90;;;;;;5001533;28;20097;-74
2022/01/24 01:35:59;;;;;;;6.53;2.60;;;5.20;99.90;;;;;;5022739;28;20045;-74
2022/01/24 01:52:57;;;;;;;4.70;2.38;;;5.20;99.90;;;;;;5013999;28;20041;-74
2022/01/24 01:55:37;;;;;;;6.13;2.85;;;5.10;99.90;;;;;;5009379;28;20107;-74
2022/01/24 01:58:06;;;;;;;7.03;2.70;;;5.10;99.90;;;;;;5013957;28;20042;-74
2022/01/24 02:00:41;;;;;;;6.05;2.33;;;5.20;99.90;;;;;;5011700;28;20037;-74
2022/01/24 02:03:11;;;;;;;4.63;1.93;;;5.20;99.90;;;;;;5013076;28;20048;-74
2022/01/24 02:05:42;;;;;;;6.43;2.58;;;5.20;99.90;;;;;;5013791;28;20063;-74
2022/01/24 02:08:13;;;;;;;5.13;2.78;;;5.30;99.90;;;;;;5030553;28;20052;-74
2022/01/24 02:10:43;;;;;;;5.40;2.35;;;5.20;99.90;;;;;;5029704;28;20551;-74
2022/01/24 02:13:12;;;;;;;5.07;2.53;;;5.10;99.90;;;;;;4991893;28;20407;-74
2022/01/24 02:15:50;;;;;;;4.70;2.23;;;5.10;99.90;;;;;;5028238;28;20412;-74
2022/01/24 02:18:30;;;;;;;5.53;1.80;;;5.00;99.90;;;;;;5026142;28;20527;-74
2022/01/24 02:21:25;;;;;;;5.35;2.25;;;5.10;99.90;;;;;;5014997;28;20045;-74
2022/01/24 02:23:59;;;;;;;4.40;1.95;;;5.10;99.90;;;;;;5006451;28;20077;-74
2022/01/24 02:26:29;;;;;;;3.90;1.65;;;5.20;99.90;;;;;;4995257;28;20461;-74
2022/01/24 02:29:05;;;;;;;4.50;1.60;;;5.10;99.90;;;;;;5013099;28;20168;-74
2022/01/24 02:31:41;;;;;;;5.32;2.22;;;5.00;99.90;;;;;;5022954;28;20076;-74
2022/01/24 02:34:27;;;;;;;4.97;2.42;;;5.00;99.90;;;;;;4998567;28;20045;-74
2022/01/24 02:36:58;;;;;;;3.72;1.90;;;5.00;99.90;;;;;;5009672;28;20037;-74
2022/01/24 02:53:36;;;;;;;3.90;1.55;;;5.30;99.90;;;;;;4957226;28;20054;-74
2022/01/24 02:56:09;;;;;;;6.17;2.10;;;5.30;99.90;;;;;;4987317;28;20062;-74
2022/01/24 02:58:40;;;;;;;4.20;2.10;;;5.30;99.90;;;;;;4985903;28;20038;-73
2022/01/24 03:01:09;;;;;;;4.25;1.65;;;5.30;99.90;;;;;;5008972;28;20132;-74
2022/01/24 03:03:40;;;;;;;3.42;1.73;;;5.30;99.90;;;;;;5026622;28;20095;-74
2022/01/24 03:06:08;;;;;;;4.72;2.55;;;5.40;99.90;;;;;;4993017;28;20092;-75
2022/01/24 03:08:40;;;;;;;4.47;1.97;;;5.40;99.90;;;;;;4994462;28;20053;-74
2022/01/24 03:11:10;;;;;;;5.22;2.28;;;5.40;99.90;;;;;;5009665;28;20475;-73
2022/01/24 03:13:39;;;;;;;6.68;2.97;;;5.40;99.90;;;;;;5028126;28;20443;-74
2022/01/24 03:16:11;;;;;;;3.95;1.98;;;5.40;99.90;;;;;;4993715;28;20081;-73
2022/01/24 03:18:41;;;;;;;5.75;2.55;;;5.40;99.90;;;;;;5013271;28;20041;-74
2022/01/24 03:21:10;;;;;;;7.57;3.13;;;5.40;99.90;;;;;;5011598;28;20046;-74
2022/01/24 03:23:40;;;;;;;3.50;1.77;;;5.40;99.90;;;;;;5013923;28;20045;-74
2022/01/24 03:26:13;;;;;;;7.22;1.90;;;5.40;99.90;;;;;;5012842;28;20081;-73
2022/01/24 03:28:41;;;;;;;6.40;2.67;;;5.40;99.90;;;;;;5009799;28;20110;-74
2022/01/24 03:31:11;;;;;;;5.05;2.83;;;5.30;99.90;;;;;;5014183;28;20034;-74
2022/01/24 03:33:40;;;;;;;5.40;2.50;;;5.30;99.90;;;;;;5010391;28;20500;-74
2022/01/24 03:36:15;;;;;;;6.35;2.50;;;5.20;99.90;;;;;;4996605;28;20042;-74
2022/01/24 03:38:44;;;;;;;6.50;2.60;;;5.30;99.90;;;;;;4992315;28;20699;-74
2022/01/24 03:41:14;;;;;;;5.80;3.03;;;5.20;99.90;;;;;;5015132;28;20038;-74
2022/01/24 03:43:44;;;;;;;5.97;2.17;;;5.20;99.90;;;;;;5011568;28;20064;-74
2022/01/24 03:46:25;;;;;;;5.80;2.40;;;5.30;99.90;;;;;;5012804;28;20041;-74
2022/01/24 03:48:56;;;;;;;4.40;2.05;;;5.30;99.90;;;;;;5025840;28;20129;-73
2022/01/24 03:51:28;;;;;;;4.90;2.65;;;5.30;99.90;;;;;;5011858;28;20459;-74
2022/01/24 03:53:57;;;;;;;5.05;2.72;;;5.20;99.90;;;;;;5009204;28;20152;-74
2022/01/24 03:56:27;;;;;;;4.47;2.60;;;5.20;99.90;;;;;;5011110;28;20088;-74
2022/01/24 03:58:56;;;;;;;6.17;2.80;;;5.20;99.90;;;;;;5007884;28;20060;-73
2022/01/24 04:01:26;;;;;;;5.63;2.88;;;5.10;99.90;;;;;;5007419;28;20578;-74
2022/01/24 04:03:55;;;;;;;5.57;2.10;;;5.10;99.90;;;;;;5010046;28;20053;-74
2022/01/24 04:06:25;;;;;;;6.78;3.15;;;5.00;99.90;;;;;;5012148;28;20054;-74
2022/01/24 04:08:54;;;;;;;6.13;2.90;;;4.90;99.90;;;;;;4994888;28;20451;-74
2022/01/24 04:11:22;;;;;;;7.83;3.70;;;5.00;99.90;;;;;;5027417;28;20115;-74
2022/01/24 04:14:09;;;;;;;6.68;2.70;;;5.00;99.90;;;;;;4996452;28;20502;-74
2022/01/24 04:16:41;;;;;;;7.00;2.53;;;5.10;99.90;;;;;;5023269;28;20180;-74
2022/01/24 04:19:34;;;;;;;5.13;2.65;;;5.10;99.90;;;;;;5026037;28;20056;-75
2022/01/24 04:22:00;;;;;;;5.68;2.78;;;5.10;99.90;;;;;;5012329;28;20099;-74
2022/01/24 04:24:29;;;;;;;4.63;2.27;;;5.10;99.90;;;;;;5011387;28;20403;-73
2022/01/24 04:27:00;;;;;;;7.18;2.28;;;5.10;99.90;;;;;;4993177;28;20488;-74
2022/01/24 04:29:31;;;;;;;6.55;2.95;;;5.10;99.90;;;;;;5009273;28;20485;-73
2022/01/24 04:32:00;;;;;;;4.90;2.25;;;5.10;99.90;;;;;;5009630;28;20111;-73
2022/01/24 04:34:31;;;;;;;6.45;2.60;;;5.10;99.90;;;;;;5026094;28;20057;-73
2022/01/24 04:37:01;;;;;;;3.57;1.90;;;5.00;99.90;;;;;;5029201;28;20061;-73
2022/01/24 04:39:31;;;;;;;5.30;2.45;;;5.00;99.90;;;;;;5007058;28;20045;-73
2022/01/24 04:42:08;;;;;;;4.50;2.42;;;5.00;99.90;;;;;;5027838;28;20037;-73
2022/01/24 04:44:52;;;;;;;5.68;2.40;;;5.00;99.90;;;;;;4990729;28;20052;-74
2022/01/24 04:47:27;;;;;;;8.13;2.65;;;4.90;99.90;;;;;;4997599;28;20446;-74
2022/01/24 04:50:39;;;;;;;5.47;2.53;;;4.90;99.90;;;;;;5007403;28;20038;-75
2022/01/24 04:53:15;;;;;;;6.53;2.30;;;4.90;99.90;;;;;;5028637;28;20092;-75
2022/01/24 04:55:44;;;;;;;5.15;2.67;;;4.90;99.90;;;;;;5032099;28;20085;-75
2022/01/24 04:58:13;;;;;;;6.88;2.28;;;5.00;99.90;;;;;;5014531;28;20431;-74
2022/01/24 05:00:44;;;;;;;4.93;2.97;;;5.00;99.90;;;;;;5028631;28;20112;-74
2022/01/24 05:03:14;;;;;;;4.87;3.00;;;5.10;99.90;;;;;;5026825;28;20053;-75
2022/01/24 05:05:43;;;;;;;5.60;3.03;;;5.00;99.90;;;;;;5013836;28;20045;-74
2022/01/24 05:08:14;;;;;;;7.68;3.22;;;5.00;99.90;;;;;;4995743;28;20046;-75
2022/01/24 05:10:55;;;;;;;5.50;2.22;;;5.00;99.90;;;;;;4998586;28;20060;-75
2022/01/24 05:24:38;;;;;;;4.72;2.38;;;4.90;99.90;;;;;;5030325;28;20045;-75
2022/01/24 05:27:08;;;;;;;5.50;2.67;;;5.00;99.90;;;;;;5012249;28;20038;-75
2022/01/24 05:29:37;;;;;;;4.77;2.33;;;5.00;99.90;;;;;;5012738;28;20045;-75
2022/01/24 05:32:08;;;;;;;5.93;2.42;;;4.90;99.90;;;;;;5025731;28;20033;-74
2022/01/24 05:34:38;;;;;;;8.98;2.83;;;4.90;99.90;;;;;;5013279;28;20561;-74
2022/01/24 05:37:07;;;;;;;5.88;3.03;;;5.00;99.90;;;;;;4993197;28;20051;-74
2022/01/24 05:39:36;;;;;;;5.05;2.20;;;5.00;99.90;;;;;;4996874;28;20072;-74
2022/01/24 05:42:05;;;;;;;7.50;2.10;;;5.00;99.90;;;;;;4999023;28;20041;-74
2022/01/24 05:44:34;;;;;;;5.78;2.60;;;5.10;99.90;;;;;;5023432;28;20053;-74
2022/01/24 05:47:03;;;;;;;4.78;1.73;;;5.10;99.90;;;;;;5015276;28;20041;-75
2022/01/24 05:49:33;;;;;;;6.75;2.33;;;5.10;99.90;;;;;;5013727;28;20507;-76
2022/01/24 05:52:08;;;;;;;3.72;1.60;;;5.20;99.90;;;;;;5016720;28;20049;-75
2022/01/24 05:54:38;;;;;;;4.40;2.27;;;5.20;99.90;;;;;;5026784;28;20044;-74
2022/01/24 05:57:08;;;;;;;5.00;2.22;;;5.20;99.90;;;;;;5013651;28;20128;-74
2022/01/24 05:59:38;;;;;;;4.25;1.90;;;5.20;99.90;;;;;;5006046;28;20096;-75
2022/01/24 06:02:08;;;;;;;6.53;2.05;;;5.20;99.90;;;;;;5029181;28;20061;-74
2022/01/24 06:04:38;;;;;;;5.95;2.05;;;5.30;99.90;;;;;;5027890;28;20173;-73
2022/01/24 06:07:06;;;;;;;3.70;2.00;;;5.20;99.90;;;;;;5029334;28;20041;-78
2022/01/24 06:09:35;;;;;;;4.50;1.50;;;5.10;99.90;;;;;;5013181;28;20080;-77
2022/01/24 06:12:31;;;;;;;4.40;1.67;;;5.00;99.90;;;;;;5025922;28;20045;-76
2022/01/24 06:15:00;;;;;;;5.18;2.92;;;5.00;99.90;;;;;;5029562;28;20049;-78
2022/01/24 06:17:56;;;;;;;4.97;1.90;;;5.00;99.90;;;;;;5026753;28;20144;-78
2022/01/24 06:20:27;;;;;;;5.77;2.03;;;4.90;99.90;;;;;;5029255;28;20053;-76
2022/01/24 06:22:56;;;;;;;4.25;1.80;;;5.00;99.90;;;;;;5010098;28;20468;-72
2022/01/24 06:25:25;;;;;;;4.40;2.13;;;5.00;99.90;;;;;;5000254;28;20092;-75
2022/01/24 06:27:54;;;;;;;3.58;1.77;;;5.10;99.90;;;;;;4994426;28;20042;-75
2022/01/24 06:30:24;;;;;;;3.75;2.13;;;5.10;99.90;;;;;;5031929;28;20056;-76
2022/01/24 06:32:53;;;;;;;3.80;1.63;;;5.20;99.90;;;;;;5026070;28;20049;-76
2022/01/24 06:35:21;;;;;;;4.85;2.35;;;5.20;99.90;;;;;;5013312;28;20037;-76
2022/01/24 06:37:51;;;;;;;4.40;2.05;;;5.20;99.90;;;;;;5026274;28;20057;-75
2022/01/24 06:40:20;;;;;;;3.53;2.00;;;5.20;99.90;;;;;;5032286;28;20069;-76
2022/01/24 06:42:48;;;;;;;5.60;1.92;;;5.20;99.90;;;;;;5027462;28;20118;-75
2022/01/24 06:45:16;;;;;;;5.40;2.27;;;5.30;99.90;;;;;;5027241;28;20049;-76
2022/01/24 06:47:44;;;;;;;5.53;2.05;;;5.20;99.90;;;;;;5008596;28;20128;-76
2022/01/24 06:50:39;;;;;;;5.50;2.10;;;5.30;99.90;;;;;;5030431;28;20045;-76
2022/01/24 06:53:09;;;;;;;5.90;1.92;;;5.30;99.90;;;;;;5029323;28;20143;-76
2022/01/24 06:55:37;;;;;;;4.03;1.73;;;5.20;99.90;;;;;;5013220;28;20060;-75
2022/01/24 06:58:06;;;;;;;5.30;2.37;;;5.20;99.90;;;;;;5030102;28;20049;-76
2022/01/24 07:01:00;;;;;;;4.72;2.35;;;5.30;99.90;;;;;;5021906;28;20402;-76
2022/01/24 07:03:29;;;;;;;4.85;2.03;;;5.30;99.90;;;;;;5028664;28;20128;-76
2022/01/24 07:05:57;;;;;;;5.65;2.47;;;5.30;99.90;;;;;;5024586;28;20042;-75
2022/01/24 07:08:27;;;;;;;6.18;1.90;;;5.30;99.90;;;;;;5026973;28;20045;-76
2022/01/24 07:10:56;;;;;;;7.50;2.47;;;5.30;99.90;;;;;;5023286;28;20499;-76
2022/01/24 07:13:25;;;;;;;3.30;1.75;;;5.30;99.90;;;;;;5009358;28;20045;-75
2022/01/24 07:16:03;;;;;;;7.22;2.50;;;5.30;99.90;;;;;;5008002;28;20047;-76
2022/01/24 07:21:21;;;;;;;5.55;2.67;;;5.30;99.90;;;;;;5027703;28;20034;-76
2022/01/24 07:23:51;;;;;;;7.20;2.10;;;5.30;99.90;;;;;;5012105;28;20132;-75
2022/01/24 07:26:21;;;;;;;6.10;2.65;;;5.30;99.90;;;;;;5012506;28;21019;-76
2022/01/24 07:28:49;;;;;;;3.53;1.70;;;5.40;99.90;;;;;;5027260;28;20045;-76
2022/01/24 07:31:18;;;;;;;4.82;2.20;;;5.30;99.90;;;;;;5011984;28;20041;-76
2022/01/24 07:33:47;;;;;;;4.60;2.08;;;5.30;99.90;;;;;;5010195;28;20498;-75
2022/01/24 07:36:15;;;;;;;3.97;2.30;;;5.20;99.90;;;;;;5012688;28;20051;-76
2022/01/24 07:39:11;;;;;;;6.78;2.85;;;5.30;99.90;;;;;;5020652;28;20487;-75
2022/01/24 07:41:44;;;;;;;8.38;2.13;;;5.30;99.90;;;;;;5027800;28;20041;-76
2022/01/24 07:44:20;;;;;;;5.85;2.13;;;5.30;99.90;;;;;;5027126;28;20042;-76
2022/01/24 07:46:49;;;;;;;6.85;2.88;;;5.30;99.90;;;;;;5024655;28;20124;-76
2022/01/24 07:49:18;;;;;;;4.83;1.83;;;5.20;99.90;;;;;;4993275;28;20057;-76
2022/01/24 07:51:46;;;;;;;4.10;2.05;;;5.10;99.90;;;;;;5009986;28;20040;-76
2022/01/24 07:54:16;;;;;;;5.78;3.03;;;5.20;99.90;;;;;;4995905;28;20060;-74
2022/01/24 07:56:45;;;;;;;6.70;2.75;;;5.10;99.90;;;;;;5027117;28;20083;-76
2022/01/24 07:59:14;;;;;;;4.25;2.65;;;5.10;99.90;;;;;;4994599;28;20049;-76
2022/01/24 08:01:44;;;;;;;7.87;2.67;;;5.00;99.90;;;;;;5026219;28;20061;-76
2022/01/24 08:04:13;;;;;;;4.28;2.47;;;5.10;99.90;;;;;;5009327;28;20104;-75
2022/01/24 08:06:41;;;;;;;6.22;2.67;;;5.20;99.90;;;;;;5007672;28;20133;-76
2022/01/24 08:09:10;;;;;;;5.90;2.47;;;5.20;99.90;;;;;;5011644;28;20041;-76
2022/01/24 08:11:40;;;;;;;6.95;2.10;;;5.20;99.90;;;;;;5023703;28;20042;-76
2022/01/24 08:17:02;;;;;;;8.45;2.38;;;5.30;99.90;;;;;;5025488;28;20061;-76
2022/01/24 08:19:32;;;;;;;4.60;2.00;;;5.20;99.90;;;;;;5008665;28;20042;-76
2022/01/24 08:22:01;;;;;;;5.45;2.40;;;5.30;99.90;;;;;;5026749;28;20045;-76
2022/01/24 08:24:35;;;;;;;5.97;2.58;;;5.30;99.90;;;;;;5006911;28;20412;-76
2022/01/24 08:27:05;;;;;;;6.90;2.83;;;5.30;99.90;;;;;;4998243;28;20045;-76
2022/01/24 08:29:34;;;;;;;6.10;3.22;;;5.40;99.90;;;;;;4996545;28;20099;-76
2022/01/24 08:32:04;;;;;;;4.20;2.35;;;5.40;99.90;;;;;;5031488;28;20041;-76
2022/01/24 08:34:35;;;;;;;5.38;2.13;;;5.40;99.90;;;;;;5021444;28;21506;-75
2022/01/24 08:37:24;;;;;;;4.50;1.65;;;5.40;99.90;;;;;;5022245;28;20468;-75
2022/01/24 08:39:52;;;;;;;4.60;2.10;;;5.30;99.90;;;;;;5026444;28;20492;-76
2022/01/24 08:42:42;;;;;;;6.35;2.17;;;5.30;99.90;;;;;;5005535;28;20419;-76
2022/01/24 08:48:01;;;;;;;3.63;2.08;;;5.20;99.90;;;;;;5014798;28;20045;-77
2022/01/24 08:50:30;;;;;;;4.57;1.70;;;5.20;99.90;;;;;;5029712;28;20125;-76
2022/01/24 08:53:00;;;;;;;4.03;2.00;;;5.30;99.90;;;;;;5014092;28;20053;-76
2022/01/24 08:55:30;;;;;;;3.55;1.73;;;5.30;99.90;;;;;;4994037;28;20052;-76
2022/01/24 08:58:03;;;;;;;5.43;2.47;;;5.40;99.90;;;;;;4995992;28;20042;-76
2022/01/24 09:00:59;;;;;;;5.75;2.40;;;5.30;99.90;;;;;;5015064;28;20048;-76
2022/01/24 09:03:29;;;;;;;11.10;2.60;;;5.20;99.90;;;;;;5013753;28;20054;-76
2022/01/24 09:06:00;;;;;;;5.47;2.40;;;5.30;99.90;;;;;;5014760;28;20046;-76
2022/01/24 09:08:30;;;;;;;5.07;2.17;;;5.30;99.90;;;;;;5029700;28;20482;-76
2022/01/24 09:11:24;;;;;;;4.63;2.35;;;5.40;99.90;;;;;;5029258;28;20052;-76
2022/01/24 09:13:54;;;;;;;4.75;1.95;;;5.40;99.90;;;;;;5030189;28;20053;-75
2022/01/24 09:16:23;;;;;;;3.53;1.40;;;5.40;99.90;;;;;;5013143;28;20491;-76
2022/01/24 09:18:53;;;;;;;5.73;1.83;;;5.40;99.90;;;;;;5031145;28;20449;-76
2022/01/24 09:21:23;;;;;;;5.28;1.75;;;5.40;99.90;;;;;;5012237;28;20053;-76
2022/01/24 09:23:52;;;;;;;7.15;2.13;;;5.40;99.90;;;;;;5012919;28;20040;-76
2022/01/24 09:26:22;;;;;;;6.25;2.58;;;5.50;99.90;;;;;;5028603;28;20095;-76
2022/01/24 09:28:51;;;;;;;5.47;1.98;;;5.60;99.90;;;;;;4999530;28;20060;-76
2022/01/24 09:31:22;;;;;;;6.73;2.37;;;5.60;99.90;;;;;;5026590;28;20061;-76
2022/01/24 09:33:52;;;;;;;5.07;1.92;;;5.70;99.90;;;;;;5033444;28;20042;-75
2022/01/24 09:36:20;;;;;;;3.63;1.60;;;5.70;99.90;;;;;;5029654;28;20037;-76
2022/01/24 09:38:49;;;;;;;4.25;1.67;;;5.80;99.90;;;;;;5017722;28;20049;-76
2022/01/24 09:41:18;;;;;;;2.60;1.17;;;5.70;99.90;;;;;;5002000;28;20038;-76
2022/01/24 09:43:46;;;;;;;3.67;1.47;;;5.60;99.90;;;;;;5016410;28;20041;-75
2022/01/24 09:46:16;;;;;;;4.22;1.40;;;5.60;99.90;;;;;;5032695;28;20069;-75
2022/01/24 09:48:46;;;;;;;4.53;1.25;;;5.70;99.90;;;;;;5034878;28;20037;-75
2022/01/24 09:51:15;;;;;;;3.17;1.33;;;5.60;99.90;;;;;;5016037;28;20042;-75
2022/01/24 09:53:44;;;;;;;3.55;0.77;;;5.50;99.90;;;;;;4999852;28;20042;-76
2022/01/24 09:56:13;;;;;;;3.23;0.87;;;5.60;99.90;;;;;;5028643;28;20132;-76
2022/01/24 09:58:42;;;;;;;4.60;1.17;;;5.60;99.90;;;;;;5013644;28;20052;-76
2022/01/24 10:01:13;;;;;;;4.88;1.50;;;5.70;99.90;;;;;;5029606;28;20096;-75
2022/01/24 10:04:11;;;;;;;3.10;1.50;;;5.70;99.90;;;;;;5013172;28;21323;-75
2022/01/24 10:07:01;;;;;;;4.25;1.10;;;5.70;99.90;;;;;;5026452;28;20041;-76
2022/01/24 10:09:33;;;;;;;2.67;1.00;;;5.70;99.90;;;;;;5029223;28;20045;-76
2022/01/24 10:12:05;;;;;;;3.95;0.98;;;5.80;99.90;;;;;;5029462;28;20045;-76
2022/01/24 10:18:38;;;;;;;2.72;1.25;;;5.70;99.90;;;;;;5026419;28;20052;-76
2022/01/24 10:21:19;;;;;;;4.93;1.48;;;5.80;99.90;;;;;;5014472;28;20057;-76
2022/01/24 10:23:48;;;;;;;3.13;0.97;;;5.80;99.90;;;;;;5027589;28;20046;-76
2022/01/24 10:26:18;;;;;;;2.88;0.93;;;5.80;99.90;;;;;;5014185;28;20042;-76
2022/01/24 10:28:47;;;;;;;2.53;1.17;;;5.90;99.90;;;;;;5012116;28;20087;-75
2022/01/24 10:31:20;;;;;;;3.42;1.20;;;5.90;99.90;;;;;;4996606;28;20042;-76
2022/01/24 10:34:04;;;;;;;3.42;0.88;;;5.90;99.90;;;;;;5028247;28;20052;-76
2022/01/24 10:36:38;;;;;;;2.93;0.90;;;5.90;99.90;;;;;;5011158;28;20050;-76
2022/01/24 10:39:32;;;;;;;3.60;1.25;;;5.80;99.90;;;;;;5014039;28;20128;-76
2022/01/24 10:42:28;;;;;;;2.67;1.10;;;5.80;99.90;;;;;;5008626;28;20057;-76
2022/01/24 10:44:59;;;;;;;2.83;1.13;;;5.70;99.90;;;;;;5026929;28;20107;-76
2022/01/24 10:47:30;;;;;;;6.97;1.38;;;5.70;99.90;;;;;;5009952;28;20057;-76
2022/01/24 10:50:01;;;;;;;3.30;1.17;;;5.80;99.90;;;;;;5025809;28;20046;-75
2022/01/24 10:52:34;;;;;;;3.92;0.93;;;5.80;99.90;;;;;;5012930;28;20471;-75
2022/01/24 10:55:15;;;;;;;5.10;0.77;;;5.90;99.90;;;;;;5011309;28;20045;-76
2022/01/24 10:58:09;;;;;;;3.58;1.15;;;5.90;99.90;;;;;;4991104;28;20108;-76
2022/01/24 11:00:40;;;;;;;3.38;1.20;;;5.80;99.90;;;;;;5005934;28;20053;-76
2022/01/24 11:03:17;;;;;;;3.73;1.23;;;5.90;99.90;;;;;;5027846;28;20037;-76
2022/01/24 11:05:49;;;;;;;6.90;1.50;;;5.90;99.90;;;;;;5010829;28;20053;-76
2022/01/24 11:08:21;;;;;;;4.55;1.17;;;6.00;99.90;;;;;;5025623;28;20048;-76
2022/01/24 11:10:52;;;;;;;2.97;0.95;;;6.00;99.90;;;;;;5028069;28;20065;-76
2022/01/24 11:13:32;;;;;;;3.17;1.33;;;5.90;99.90;;;;;;5007697;28;20049;-76
2022/01/24 11:16:02;;;;;;;2.80;0.80;;;5.80;99.90;;;;;;5027516;28;20041;-76
2022/01/24 11:18:36;;;;;;;3.67;1.08;;;5.70;99.90;;;;;;5003419;28;20056;-76
2022/01/24 11:21:13;;;;;;;3.60;1.10;;;5.80;99.90;;;;;;4990794;28;20365;-76
2022/01/24 11:23:44;;;;;;;3.35;1.30;;;5.90;99.90;;;;;;5024904;28;20490;-76
2022/01/24 11:26:13;;;;;;;5.18;1.77;;;6.00;99.90;;;;;;5009541;28;20111;-76
2022/01/24 11:28:44;;;;;;;7.13;1.13;;;6.00;99.90;;;;;;5026783;28;20045;-76
2022/01/24 11:34:30;;;;;;;3.63;1.33;;;6.00;99.90;;;;;;5024731;28;20053;-76
2022/01/24 11:37:00;;;;;;;4.22;1.38;;;6.10;99.90;;;;;;5010727;28;20059;-76
2022/01/24 11:39:30;;;;;;;2.72;1.30;;;6.20;99.90;;;;;;4996460;28;20077;-76
2022/01/24 11:41:59;;;;;;;5.07;1.53;;;6.20;99.90;;;;;;5024115;28;20071;-76
2022/01/24 11:44:47;;;;;;;4.13;1.23;;;6.10;99.90;;;;;;5026983;28;20115;-76
2022/01/24 11:47:26;;;;;;;3.17;1.13;;;6.20;99.90;;;;;;4991737;28;20045;-76
2022/01/24 11:49:56;;;;;;;4.43;1.55;;;6.00;99.90;;;;;;5023817;28;20071;-76
2022/01/24 11:52:33;;;;;;;6.32;1.05;;;5.90;99.90;;;;;;5010884;28;20503;-75
2022/01/24 11:55:20;;;;;;;3.30;1.33;;;5.80;99.90;;;;;;4991698;28;20053;-76
2022/01/24 11:58:22;;;;;;;3.63;1.50;;;5.80;99.90;;;;;;5006338;28;20454;-76
2022/01/24 12:00:54;;;;;;;4.68;1.20;;;5.90;99.90;;;;;;5007164;28;20042;-76
2022/01/24 12:03:27;;;;;;;4.03;1.13;;;6.00;99.90;;;;;;5008850;28;20064;-75
2022/01/24 12:05:58;;;;;;;4.38;1.02;;;6.10;99.90;;;;;;5009038;28;20075;-75
2022/01/24 12:08:48;;;;;;;4.10;1.50;;;6.00;99.90;;;;;;5028448;28;20412;-76
2022/01/24 12:11:24;;;;;;;2.75;1.33;;;6.00;99.90;;;;;;5009239;28;20045;-75
2022/01/24 12:14:00;;;;;;;2.88;1.10;;;6.10;99.90;;;;;;5011262;28;20507;-75
2022/01/24 12:16:34;;;;;;;3.20;1.23;;;6.20;99.90;;;;;;5023878;28;21051;-77
2022/01/24 12:19:31;;;;;;;6.30;1.90;;;6.20;99.90;;;;;;5008092;28;20123;-76
2022/01/24 12:22:00;;;;;;;4.20;1.80;;;6.30;99.90;;;;;;4995310;28;20048;-77
2022/01/24 12:24:44;;;;;;;4.25;1.45;;;6.30;99.90;;;;;;4993685;28;20139;-76
2022/01/24 12:27:15;;;;;;;8.35;1.85;;;6.40;99.90;;;;;;5027235;28;20108;-76
2022/01/24 12:29:44;;;;;;;4.63;2.05;;;6.40;99.90;;;;;;5008777;28;20042;-76
2022/01/24 12:32:23;;;;;;;5.45;1.67;;;6.40;99.90;;;;;;5028880;28;20048;-76
2022/01/24 12:34:51;;;;;;;4.97;1.47;;;6.30;99.90;;;;;;5024960;28;20052;-76
2022/01/24 12:37:25;;;;;;;4.47;1.40;;;6.30;99.90;;;;;;5022404;28;20585;-75
2022/01/24 12:40:01;;;;;;;4.40;1.83;;;6.30;99.90;;;;;;5007739;28;20095;-76
2022/01/24 12:42:47;;;;;;;3.47;1.40;;;6.30;99.90;;;;;;5007967;28;20045;-76
2022/01/24 12:48:29;;;;;;;4.30;1.50;;;6.20;99.90;;;;;;5006443;28;20043;-76
2022/01/24 12:50:58;;;;;;;2.97;1.35;;;6.20;99.90;;;;;;5030531;28;20513;-76
2022/01/24 12:53:28;;;;;;;3.72;1.75;;;6.20;99.90;;;;;;5026635;28;20056;-76
2022/01/24 12:56:00;;;;;;;4.00;1.25;;;6.30;99.90;;;;;;4998286;28;20057;-75
2022/01/24 12:58:39;;;;;;;4.43;1.70;;;6.30;99.90;;;;;;4989181;28;20668;-76
2022/01/24 13:01:26;;;;;;;3.90;1.03;;;6.20;99.90;;;;;;4992897;28;20050;-76
2022/01/24 13:03:58;;;;;;;3.35;1.38;;;6.00;99.90;;;;;;5027177;28;20033;-75
2022/01/24 13:06:30;;;;;;;7.20;1.65;;;5.90;99.90;;;;;;5027391;28;20037;-76
2022/01/24 13:09:01;;;;;;;4.43;1.63;;;5.90;99.90;;;;;;5027448;28;20072;-75
2022/01/24 13:11:32;;;;;;;6.63;1.38;;;5.90;99.90;;;;;;5028619;28;20060;-76
2022/01/24 13:14:10;;;;;;;3.53;1.03;;;5.90;99.90;;;;;;5030837;28;20037;-77
2022/01/24 13:21:06;;;;;;;3.50;1.35;;;5.80;99.90;;;;;;5014409;28;20044;-76
2022/01/24 13:23:43;;;;;;;10.10;2.20;;;5.80;99.90;;;;;;5014306;28;20052;-76
2022/01/24 13:26:13;;;;;;;3.42;1.55;;;5.60;99.90;;;;;;5030256;28;20228;-77
2022/01/24 13:28:43;;;;;;;7.67;2.03;;;5.70;99.90;;;;;;5000099;28;20448;-76
2022/01/24 13:31:14;;;;;;;6.25;1.70;;;5.70;99.90;;;;;;5010442;28;20073;-76
2022/01/24 13:33:46;;;;;;;3.10;1.40;;;5.90;99.90;;;;;;5014830;28;20053;-76
2022/01/24 13:36:19;;;;;;;3.30;1.30;;;5.90;99.90;;;;;;5014580;28;20041;-76
2022/01/24 13:38:50;;;;;;;3.75;1.40;;;6.00;99.90;;;;;;5031127;28;20045;-76
2022/01/24 13:41:22;;;;;;;3.60;1.67;;;6.10;99.90;;;;;;5026463;28;20057;-76
2022/01/24 13:43:54;;;;;;;3.30;1.45;;;6.10;99.90;;;;;;5014390;28;20040;-76
2022/01/24 13:46:28;;;;;;;4.65;1.80;;;6.20;99.90;;;;;;5029952;28;20053;-76
2022/01/24 13:49:02;;;;;;;3.80;1.45;;;6.20;99.90;;;;;;5026462;28;20496;-76
2022/01/24 13:51:35;;;;;;;3.90;1.50;;;6.30;99.90;;;;;;5012979;28;20049;-76
2022/01/24 13:54:05;;;;;;;3.47;1.60;;;6.30;99.90;;;;;;5017705;28;21204;-76
2022/01/24 13:56:35;;;;;;;2.75;1.00;;;6.30;99.90;;;;;;5030808;28;20135;-76
2022/01/24 13:59:09;;;;;;;4.30;1.50;;;6.00;99.90;;;;;;5011087;28;20123;-76
2022/01/24 14:01:51;;;;;;;5.35;1.88;;;5.90;99.90;;;;;;5014698;28;20129;-77
2022/01/24 14:04:28;;;;;;;4.18;1.17;;;5.70;99.90;;;;;;5028873;28;20042;-75
2022/01/24 14:06:59;;;;;;;4.47;1.70;;;5.40;99.90;;;;;;5031069;28;20670;-76
2022/01/24 14:09:44;;;;;;;5.55;1.45;;;5.50;99.90;;;;;;5011983;28;20112;-75
2022/01/24 14:12:16;;;;;;;3.00;1.38;;;5.60;99.90;;;;;;5010152;28;20052;-75
2022/01/24 14:14:52;;;;;;;3.95;1.73;;;5.70;99.90;;;;;;5028164;28;20112;-76
2022/01/24 14:20:17;;;;;;;3.10;1.70;;;5.50;99.90;;;;;;4984217;28;20049;-75
2022/01/24 14:22:47;;;;;;;5.80;1.77;;;5.60;99.90;;;;;;5010348;28;20041;-76
2022/01/24 14:25:19;;;;;;;5.25;1.58;;;5.50;99.90;;;;;;4994729;28;20037;-76
2022/01/24 14:27:49;;;;;;;3.85;1.45;;;5.60;99.90;;;;;;5008061;28;20046;-75
2022/01/24 14:30:34;;;;;;;5.53;1.98;;;5.70;99.90;;;;;;5014199;28;20048;-76
2022/01/24 14:33:12;;;;;;;4.67;1.87;;;5.80;99.90;;;;;;5026961;28;20045;-76
2022/01/24 14:35:49;;;;;;;8.95;2.20;;;5.90;99.90;;;;;;5028699;28;20088;-76
2022/01/24 14:38:34;;;;;;;6.28;1.85;;;5.90;99.90;;;;;;4996140;28;20037;-76
2022/01/24 14:41:06;;;;;;;4.65;1.85;;;5.90;99.90;;;;;;5008567;28;20064;-75
2022/01/24 14:46:28;;;;;;;4.80;1.37;;;6.00;99.90;;;;;;5019831;28;20081;-76
2022/01/24 14:49:00;;;;;;;5.00;1.50;;;5.90;99.90;;;;;;5029001;28;20064;-76
2022/01/24 14:51:32;;;;;;;3.05;1.10;;;5.90;99.90;;;;;;5012511;28;20480;-76
2022/01/24 14:54:03;;;;;;;5.07;1.63;;;5.90;99.90;;;;;;5028231;28;20140;-77
2022/01/24 14:56:33;;;;;;;3.28;1.30;;;5.90;99.90;;;;;;4997477;28;20546;-79
2022/01/24 14:59:04;;;;;;;3.80;1.60;;;5.90;99.90;;;;;;5015389;28;20045;-76
2022/01/24 15:01:33;;;;;;;3.60;1.42;;;5.90;99.90;;;;;;5021872;28;20054;-77
2022/01/24 15:04:05;;;;;;;4.95;1.50;;;5.90;99.90;;;;;;5007888;28;20037;-78